Time;durP1;ratioP1;P1;durP2;ratioP2;P2;SDS_P1;SDS_P2;PMS_P1;PMS_P2;Temp;Humidity;BMP_temperature;BMP_pressure;BME280_temperature;BME280_humidity;BME280_pressure;Samples;Min_cycle;Max_cycle;Signal;HPM_P1;HPM_P2
2023/12/09 06:34:51;;;;;;;1.20;0.47;;;;;;;;;;2180179;24;21217;31
2023/12/09 06:43:12;;;;;;;1.55;0.70;;;;;;;;;;3764796;24;19951;-85
2023/12/09 06:45:40;;;;;;;5.57;1.27;;;;;;;;;;4820150;29;20130;-85
2023/12/09 06:48:27;;;;;;;2.20;0.93;;;;;;;;;;4818209;29;20053;-84
2023/12/09 06:51:01;;;;;;;2.15;0.75;;;;;;;;;;4821021;29;20137;-84
2023/12/09 07:00:43;;;;;;;1.67;0.77;;;;;;;;;;4769408;30;20051;-87
2023/12/09 07:03:11;;;;;;;2.63;1.10;;;;;;;;;;4748379;30;20101;-85
2023/12/09 07:05:40;;;;;;;3.10;1.25;;;;;;;;;;4762494;30;20043;-84
2023/12/09 07:10:53;;;;;;;2.80;0.90;;;;;;;;;;4826193;24;20091;-84
2023/12/09 07:13:22;;;;;;;4.32;1.17;;;;;;;;;;4814703;29;20394;-85
2023/12/09 07:15:48;;;;;;;2.30;1.50;;;;;;;;;;4820973;29;20121;-87
2023/12/09 07:18:14;;;;;;;4.60;1.15;;;;;;;;;;4816552;29;20042;-86
2023/12/09 07:20:40;;;;;;;2.45;1.50;;;;;;;;;;4817538;29;20735;-87
2023/12/09 07:23:06;;;;;;;4.93;1.02;;;;;;;;;;4823663;29;20046;-87
2023/12/09 07:25:32;;;;;;;2.55;0.80;;;;;;;;;;4831968;29;20516;-87
2023/12/09 07:27:58;;;;;;;2.58;1.02;;;;;;;;;;4820083;29;20038;-85
2023/12/09 07:30:24;;;;;;;0.98;0.50;;;;;;;;;;4820607;29;20477;-86
2023/12/09 07:32:50;;;;;;;3.47;1.27;;;;;;;;;;4819348;29;20141;-90
2023/12/09 07:35:17;;;;;;;0.60;0.50;;;;;;;;;;4820114;29;20112;-85
2023/12/09 07:37:44;;;;;;;1.45;1.10;;;;;;;;;;4835142;29;20090;-85
2023/12/09 07:40:11;;;;;;;0.90;0.63;;;;;;;;;;4827192;29;20054;-84
2023/12/09 07:42:38;;;;;;;1.08;0.70;;;;;;;;;;4825669;29;20058;-89
2023/12/09 07:45:04;;;;;;;1.17;0.80;;;;;;;;;;4819756;29;20175;-88
2023/12/09 07:47:30;;;;;;;2.17;1.05;;;;;;;;;;4816468;29;20042;-89
2023/12/09 07:49:56;;;;;;;1.83;1.27;;;;;;;;;;4811475;29;20062;-88
2023/12/09 07:52:22;;;;;;;1.88;1.05;;;;;;;;;;4814667;29;20147;-88
2023/12/09 07:54:48;;;;;;;2.35;0.52;;;;;;;;;;4816135;29;20058;-88
2023/12/09 07:57:14;;;;;;;1.88;0.90;;;;;;;;;;4833551;29;20046;-88
2023/12/09 07:59:41;;;;;;;2.85;1.55;;;;;;;;;;4820069;29;20500;-88
2023/12/09 08:08:31;;;;;;;8.05;3.97;;;;;;;;;;4868348;24;20400;-87
2023/12/09 08:11:01;;;;;;;16.33;4.05;;;;;;;;;;4811705;29;20074;-89
2023/12/09 08:13:27;;;;;;;12.35;2.13;;;;;;;;;;4831829;29;20504;-88
2023/12/09 08:15:56;;;;;;;2.03;1.60;;;;;;;;;;4832749;29;20054;-90
2023/12/09 08:18:22;;;;;;;4.10;1.73;;;;;;;;;;4816896;29;20404;-87
2023/12/09 08:20:48;;;;;;;9.07;3.30;;;;;;;;;;4832275;29;20565;-88
2023/12/09 08:23:14;;;;;;;9.60;3.28;;;;;;;;;;4833357;29;20065;-88
2023/12/09 08:25:57;;;;;;;4.75;1.67;;;;;;;;;;4838764;29;20132;-88
2023/12/09 08:28:27;;;;;;;3.83;2.63;;;;;;;;;;4833103;29;20049;-85
2023/12/09 08:30:56;;;;;;;5.10;2.55;;;;;;;;;;4838267;29;20107;-89
2023/12/09 08:33:24;;;;;;;4.97;2.60;;;;;;;;;;4831806;29;20050;-85
2023/12/09 08:36:02;;;;;;;3.47;0.88;;;;;;;;;;4837757;29;20056;-90
2023/12/09 08:44:31;;;;;;;9.95;2.95;;;;;;;;;;4819656;29;20046;-86
2023/12/09 08:46:57;;;;;;;4.00;1.95;;;;;;;;;;4809679;29;20043;-89
2023/12/09 08:49:28;;;;;;;4.63;1.92;;;;;;;;;;4795652;29;20062;-89
2023/12/09 08:51:54;;;;;;;3.15;1.00;;;;;;;;;;4796658;29;20193;-89
2023/12/09 08:54:23;;;;;;;1.52;1.17;;;;;;;;;;4804415;29;20054;-88
2023/12/09 08:56:49;;;;;;;2.92;1.50;;;;;;;;;;4814440;29;20053;-88
2023/12/09 08:59:21;;;;;;;3.70;1.20;;;;;;;;;;4803256;29;20058;-88
2023/12/09 09:01:51;;;;;;;1.85;1.40;;;;;;;;;;4804870;29;20054;-89
2023/12/09 09:04:22;;;;;;;2.85;1.00;;;;;;;;;;4813469;29;20369;-89
2023/12/09 09:06:53;;;;;;;4.55;1.75;;;;;;;;;;4806381;29;20046;-89
2023/12/09 09:09:22;;;;;;;6.57;1.00;;;;;;;;;;4808456;29;20058;-88
2023/12/09 09:11:48;;;;;;;7.13;2.50;;;;;;;;;;4809521;29;20039;-89
2023/12/09 09:14:56;;;;;;;1.98;0.80;;;;;;;;;;4807698;29;20078;-89
2023/12/09 09:17:24;;;;;;;3.28;1.73;;;;;;;;;;4823403;29;20795;-89
2023/12/09 09:19:53;;;;;;;3.53;1.60;;;;;;;;;;4807555;29;20061;-89
2023/12/09 09:22:22;;;;;;;1.75;1.10;;;;;;;;;;4802490;29;20062;-89
2023/12/09 09:24:58;;;;;;;6.10;1.23;;;;;;;;;;4797302;29;20377;-88
2023/12/09 09:27:37;;;;;;;1.05;0.57;;;;;;;;;;4816153;29;20095;-89
2023/12/09 09:30:03;;;;;;;2.13;1.05;;;;;;;;;;4804718;29;20418;-88
2023/12/09 09:32:32;;;;;;;1.67;1.02;;;;;;;;;;4799081;29;20204;-89
2023/12/09 09:35:00;;;;;;;2.88;1.23;;;;;;;;;;4788470;29;20051;-86
2023/12/09 09:37:37;;;;;;;1.40;0.90;;;;;;;;;;4790057;29;20046;-89
2023/12/09 09:40:06;;;;;;;2.75;0.50;;;;;;;;;;4788907;29;20042;-88
2023/12/09 09:42:35;;;;;;;4.88;2.25;;;;;;;;;;4784494;29;20114;-85
2023/12/09 09:45:05;;;;;;;2.60;0.60;;;;;;;;;;4783250;29;20039;-88
2023/12/09 09:47:39;;;;;;;1.17;0.77;;;;;;;;;;4782220;30;20663;-88
2023/12/09 09:50:14;;;;;;;2.17;1.20;;;;;;;;;;4784549;30;20417;-89
2023/12/09 09:58:58;;;;;;;3.22;1.98;;;;;;;;;;4741958;30;20222;-87
2023/12/09 10:01:29;;;;;;;5.82;2.70;;;;;;;;;;4745960;30;20091;-85
2023/12/09 10:03:55;;;;;;;7.28;3.50;;;;;;;;;;4754730;30;20847;-87
2023/12/09 10:06:28;;;;;;;5.28;3.40;;;;;;;;;;4779093;29;20050;-91
2023/12/09 10:18:39;;;;;;;1.90;0.95;;;;;;;;;;4770328;30;20039;-90
2023/12/09 10:21:24;;;;;;;1.65;0.88;;;;;;;;;;4773963;24;20126;-87
2023/12/09 10:23:50;;;;;;;1.10;0.65;;;;;;;;;;4826502;29;20054;-88
2023/12/09 10:26:19;;;;;;;6.90;1.05;;;;;;;;;;4819219;29;20050;-86
2023/12/09 10:37:00;;;;;;;1.25;0.35;;;;;;;;;;4810043;29;20141;-84
2023/12/09 10:39:26;;;;;;;0.28;0.25;;;;;;;;;;4777345;29;20046;-85
2023/12/09 10:41:52;;;;;;;0.55;0.32;;;;;;;;;;4819121;29;20497;-84
2023/12/09 10:44:18;;;;;;;0.50;0.40;;;;;;;;;;4805502;29;20038;-83
2023/12/09 10:46:44;;;;;;;1.17;0.85;;;;;;;;;;4816932;29;20057;-83
2023/12/09 10:49:11;;;;;;;2.78;0.80;;;;;;;;;;4819696;29;20047;-84
2023/12/09 10:51:37;;;;;;;6.80;1.70;;;;;;;;;;4816146;29;20107;-82
2023/12/09 10:54:04;;;;;;;2.10;0.25;;;;;;;;;;4813569;29;20039;-85
2023/12/09 10:56:30;;;;;;;1.30;0.65;;;;;;;;;;4811046;29;20760;-84
2023/12/09 10:59:02;;;;;;;4.10;0.52;;;;;;;;;;4822383;29;20497;-87
2023/12/09 11:01:28;;;;;;;;;;;;;;;;;;4807745;29;20165;-84
2023/12/09 11:03:54;;;;;;;2.13;0.40;;;;;;;;;;4826721;29;19943;-86
2023/12/09 11:06:21;;;;;;;1.50;0.52;;;;;;;;;;4803696;29;20118;-85
2023/12/09 11:08:48;;;;;;;0.75;0.32;;;;;;;;;;4812276;29;20088;-85
2023/12/09 11:11:15;;;;;;;1.25;0.40;;;;;;;;;;4803359;29;20050;-85
2023/12/09 11:13:48;;;;;;;2.70;0.80;;;;;;;;;;4798823;29;20089;-87
2023/12/09 11:16:35;;;;;;;1.00;0.63;;;;;;;;;;4801057;29;20398;-87
2023/12/09 11:19:02;;;;;;;2.00;1.08;;;;;;;;;;4831853;29;20038;-86
2023/12/09 11:21:29;;;;;;;0.85;0.63;;;;;;;;;;4803045;29;20059;-86
2023/12/09 11:24:14;;;;;;;1.40;0.77;;;;;;;;;;4804969;29;20034;-88
2023/12/09 11:27:01;;;;;;;1.67;0.90;;;;;;;;;;4816527;29;20134;-86
2023/12/09 11:29:27;;;;;;;2.80;0.85;;;;;;;;;;4806703;29;20205;-87
2023/12/09 11:31:53;;;;;;;1.67;1.00;;;;;;;;;;4806991;29;20081;-87
2023/12/09 11:34:23;;;;;;;0.60;0.40;;;;;;;;;;4802293;29;20056;-87
2023/12/09 11:36:52;;;;;;;3.05;1.02;;;;;;;;;;4799299;29;20513;-87
2023/12/09 11:39:19;;;;;;;3.15;1.23;;;;;;;;;;4798640;29;20937;-85
2023/12/09 11:41:48;;;;;;;1.52;1.05;;;;;;;;;;4798461;29;20817;-86
2023/12/09 11:44:17;;;;;;;2.63;1.40;;;;;;;;;;4792369;29;20047;-85
2023/12/09 11:46:45;;;;;;;3.60;1.63;;;;;;;;;;4794260;29;20047;-88
2023/12/09 11:49:11;;;;;;;1.58;0.60;;;;;;;;;;4792729;29;20043;-85
2023/12/09 11:51:38;;;;;;;3.72;1.58;;;;;;;;;;4806700;29;20379;-84
2023/12/09 11:54:05;;;;;;;2.10;0.90;;;;;;;;;;4796137;29;20697;-85
2023/12/09 11:56:31;;;;;;;5.78;1.13;;;;;;;;;;4784594;29;20047;-87
2023/12/09 11:58:57;;;;;;;5.25;1.67;;;;;;;;;;4783879;29;20092;-85
2023/12/09 12:01:24;;;;;;;7.78;3.00;;;;;;;;;;4783700;29;20674;-86
2023/12/09 12:03:50;;;;;;;11.02;5.28;;;;;;;;;;4802220;29;20046;-85
2023/12/09 12:06:17;;;;;;;6.85;2.47;;;;;;;;;;4794919;29;20043;-88
2023/12/09 12:08:44;;;;;;;7.55;3.80;;;;;;;;;;4793159;29;20131;-86
2023/12/09 12:11:10;;;;;;;3.83;1.30;;;;;;;;;;4787418;29;20046;-87
2023/12/09 12:13:37;;;;;;;1.63;0.80;;;;;;;;;;4797939;29;20053;-82
2023/12/09 12:16:03;;;;;;;3.75;0.75;;;;;;;;;;4793404;29;20043;-82
2023/12/09 12:18:29;;;;;;;2.42;0.77;;;;;;;;;;4800683;29;20047;-83
2023/12/09 12:20:58;;;;;;;3.53;1.17;;;;;;;;;;4792457;29;20047;-85
2023/12/09 12:23:24;;;;;;;3.08;1.15;;;;;;;;;;4797020;29;20058;-85
2023/12/09 12:25:53;;;;;;;0.65;0.43;;;;;;;;;;4786384;29;20099;-79
2023/12/09 12:28:19;;;;;;;1.48;0.25;;;;;;;;;;4798404;29;20045;-78
2023/12/09 12:30:45;;;;;;;0.50;0.30;;;;;;;;;;4798964;29;20062;-80
2023/12/09 12:33:39;;;;;;;0.60;0.20;;;;;;;;;;4803392;29;20096;-88
2023/12/09 12:36:10;;;;;;;2.05;0.93;;;;;;;;;;4808583;29;20112;-87
2023/12/09 12:39:29;;;;;;;0.47;0.17;;;;;;;;;;4815460;29;20042;-88
2023/12/09 12:42:16;;;;;;;0.13;0.08;;;;;;;;;;4820069;29;20039;-88
2023/12/09 12:44:44;;;;;;;0.10;0.10;;;;;;;;;;4823064;29;20041;-88
2023/12/09 12:47:11;;;;;;;1.02;0.90;;;;;;;;;;4800671;29;20046;-87
2023/12/09 12:50:09;;;;;;;0.47;0.22;;;;;;;;;;4827494;29;20049;-86
2023/12/09 12:52:35;;;;;;;0.43;0.00;;;;;;;;;;4817989;29;20136;-85
2023/12/09 12:55:16;;;;;;;3.85;0.60;;;;;;;;;;4803702;29;20050;-87
2023/12/09 12:57:43;;;;;;;0.70;0.13;;;;;;;;;;4753063;30;20051;-85
2023/12/09 13:10:24;;;;;;;1.08;0.75;;;;;;;;;;4682733;30;20045;-87
2023/12/09 13:16:15;;;;;;;0.32;0.20;;;;;;;;;;4682981;30;20065;-86
2023/12/09 13:18:51;;;;;;;0.57;0.32;;;;;;;;;;4647503;30;20059;-86
2023/12/09 13:21:38;;;;;;;0.77;0.47;;;;;;;;;;4729386;29;20505;-87
2023/12/09 13:24:38;;;;;;;0.55;0.30;;;;;;;;;;4805015;29;20041;-87
2023/12/09 13:27:08;;;;;;;0.25;0.10;;;;;;;;;;4772583;30;20086;-86
2023/12/09 13:30:15;;;;;;;0.00;0.00;;;;;;;;;;4781716;29;20068;-86
2023/12/09 13:36:13;;;;;;;;;;;;;;;;;;;;;
2023/12/09 13:55:30;;;;;;;0.08;0.08;;;;;;;;;;4801538;29;20054;-85
2023/12/09 14:00:57;;;;;;;0.00;0.00;;;;;;;;;;4799995;29;20053;-83
2023/12/09 14:03:23;;;;;;;0.05;0.00;;;;;;;;;;4792423;29;20055;-82
2023/12/09 14:05:49;;;;;;;0.50;0.22;;;;;;;;;;4787432;29;20437;-80
2023/12/09 14:08:16;;;;;;;0.10;0.10;;;;;;;;;;4796154;29;20058;-82
2023/12/09 14:10:45;;;;;;;0.00;0.00;;;;;;;;;;4808194;29;20045;-82
2023/12/09 14:13:11;;;;;;;0.00;0.00;;;;;;;;;;4805304;29;20047;-84
2023/12/09 14:15:57;;;;;;;1.85;0.35;;;;;;;;;;4804338;24;20439;-90
2023/12/09 14:19:20;;;;;;;0.88;0.28;;;;;;;;;;4807513;29;20050;-87
2023/12/09 14:21:46;;;;;;;0.28;0.20;;;;;;;;;;4766981;30;20406;-84
2023/12/09 14:24:21;;;;;;;2.35;0.75;;;;;;;;;;4781245;30;20203;-88
2023/12/09 14:29:22;;;;;;;0.00;0.00;;;;;;;;;;4885975;24;20473;-85
2023/12/09 14:32:28;;;;;;;0.20;0.03;;;;;;;;;;4804355;29;20133;-85
2023/12/09 14:41:03;;;;;;;0.00;0.00;;;;;;;;;;4730757;30;20060;-82
2023/12/09 14:43:32;;;;;;;0.47;0.10;;;;;;;;;;4727225;30;20044;-82
2023/12/09 14:45:59;;;;;;;0.22;0.22;;;;;;;;;;4727130;30;20087;-77
2023/12/09 14:48:25;;;;;;;0.00;0.00;;;;;;;;;;4751443;29;20055;-77
2023/12/09 14:50:53;;;;;;;0.22;0.00;;;;;;;;;;4821989;29;20085;-77
2023/12/09 14:53:19;;;;;;;0.40;0.00;;;;;;;;;;4822276;29;20042;-77
2023/12/09 14:55:45;;;;;;;0.00;0.00;;;;;;;;;;4819367;29;20099;-77
2023/12/09 14:58:12;;;;;;;12.95;0.50;;;;;;;;;;4822151;29;20409;-77
2023/12/09 15:00:38;;;;;;;0.00;0.00;;;;;;;;;;4811427;29;20092;-76
2023/12/09 15:03:04;;;;;;;6.55;1.50;;;;;;;;;;4818226;29;20065;-79
2023/12/09 15:05:30;;;;;;;3.25;1.17;;;;;;;;;;4821582;29;20095;-79
2023/12/09 15:07:56;;;;;;;3.20;0.57;;;;;;;;;;4819041;29;20097;-80
2023/12/09 15:10:23;;;;;;;0.00;0.00;;;;;;;;;;4818026;29;20385;-81
2023/12/09 15:12:49;;;;;;;3.53;0.70;;;;;;;;;;4803266;29;20641;-80
2023/12/09 15:15:16;;;;;;;0.05;0.05;;;;;;;;;;4821537;29;20054;-77
2023/12/09 15:17:42;;;;;;;1.27;0.22;;;;;;;;;;4813558;29;20034;-80
2023/12/09 15:20:09;;;;;;;0.20;0.20;;;;;;;;;;4821474;29;20082;-79
2023/12/09 15:22:35;;;;;;;1.13;0.40;;;;;;;;;;4815426;29;20478;-79
2023/12/09 15:25:02;;;;;;;0.47;0.35;;;;;;;;;;4820975;29;20125;-79
2023/12/09 15:27:30;;;;;;;0.20;0.15;;;;;;;;;;4812329;29;20030;-79
2023/12/09 15:30:03;;;;;;;1.10;0.30;;;;;;;;;;4827482;29;20053;-82
2023/12/09 15:32:29;;;;;;;0.30;0.17;;;;;;;;;;4811253;29;20863;-80
2023/12/09 15:34:55;;;;;;;0.68;0.40;;;;;;;;;;4824712;29;20053;-82
2023/12/09 15:37:21;;;;;;;0.52;0.43;;;;;;;;;;4814253;29;20051;-84
2023/12/09 15:39:47;;;;;;;0.15;0.10;;;;;;;;;;4798818;29;20062;-79
2023/12/09 15:42:13;;;;;;;0.65;0.40;;;;;;;;;;4803085;29;20393;-81
2023/12/09 15:44:40;;;;;;;1.38;0.85;;;;;;;;;;4821426;29;20477;-82
2023/12/09 15:47:06;;;;;;;1.45;0.75;;;;;;;;;;4802967;29;20050;-82
2023/12/09 15:49:32;;;;;;;4.90;1.38;;;;;;;;;;4804113;29;20061;-82
2023/12/09 15:51:58;;;;;;;1.33;0.60;;;;;;;;;;4816669;29;20078;-81
2023/12/09 15:54:24;;;;;;;1.60;0.28;;;;;;;;;;4819211;29;20082;-82
2023/12/09 15:56:50;;;;;;;1.05;0.43;;;;;;;;;;4815961;29;20074;-82
2023/12/09 15:59:16;;;;;;;0.65;0.28;;;;;;;;;;4801532;29;20071;-82
2023/12/09 16:01:42;;;;;;;2.22;0.30;;;;;;;;;;4815892;29;20038;-82
2023/12/09 16:04:08;;;;;;;0.80;0.43;;;;;;;;;;4801862;29;20104;-81
2023/12/09 16:06:34;;;;;;;2.05;1.33;;;;;;;;;;4821136;29;20113;-82
2023/12/09 16:09:00;;;;;;;2.55;0.98;;;;;;;;;;4820300;29;20039;-81
2023/12/09 16:11:26;;;;;;;2.95;1.17;;;;;;;;;;4821262;29;20090;-81
2023/12/09 16:13:52;;;;;;;4.60;1.65;;;;;;;;;;4813757;29;20046;-81
2023/12/09 16:16:19;;;;;;;0.98;0.60;;;;;;;;;;4812771;29;20130;-80
2023/12/09 16:18:46;;;;;;;1.77;1.17;;;;;;;;;;4809192;29;20185;-80
2023/12/09 16:21:12;;;;;;;1.35;0.45;;;;;;;;;;4820329;29;20088;-79
2023/12/09 16:23:38;;;;;;;1.85;0.95;;;;;;;;;;4815979;29;20062;-80
2023/12/09 16:26:05;;;;;;;7.45;0.80;;;;;;;;;;4816656;29;20093;-80
2023/12/09 16:28:31;;;;;;;3.85;1.30;;;;;;;;;;4816540;29;20047;-80
2023/12/09 16:30:57;;;;;;;5.40;1.20;;;;;;;;;;4810549;29;20608;-81
2023/12/09 16:33:23;;;;;;;3.55;1.45;;;;;;;;;;4814547;29;20046;-80
2023/12/09 16:35:49;;;;;;;1.65;0.65;;;;;;;;;;4820371;29;20054;-79
2023/12/09 16:38:15;;;;;;;0.52;0.20;;;;;;;;;;4819526;29;20069;-79
2023/12/09 16:40:43;;;;;;;2.88;1.27;;;;;;;;;;4809346;29;20473;-80
2023/12/09 16:43:09;;;;;;;1.27;0.40;;;;;;;;;;4820494;29;20389;-80
2023/12/09 16:45:35;;;;;;;3.90;1.00;;;;;;;;;;4804396;29;20512;-81
2023/12/09 16:48:01;;;;;;;1.27;0.60;;;;;;;;;;4816894;29;20039;-80
2023/12/09 16:50:27;;;;;;;6.88;1.05;;;;;;;;;;4817462;29;20054;-79
2023/12/09 16:52:53;;;;;;;0.55;0.30;;;;;;;;;;4808193;29;20121;-79
2023/12/09 16:55:20;;;;;;;1.25;0.68;;;;;;;;;;4820824;29;20085;-80
2023/12/09 16:57:48;;;;;;;3.83;0.45;;;;;;;;;;4820533;29;20049;-80
2023/12/09 17:00:14;;;;;;;2.72;0.80;;;;;;;;;;4814155;29;20050;-83
2023/12/09 17:02:40;;;;;;;0.82;0.50;;;;;;;;;;4817850;29;20039;-81
2023/12/09 17:05:09;;;;;;;1.70;0.50;;;;;;;;;;4797266;29;20054;-81
2023/12/09 17:07:35;;;;;;;0.20;0.10;;;;;;;;;;4806952;29;20030;-81
2023/12/09 17:10:01;;;;;;;0.95;0.50;;;;;;;;;;4803834;29;20057;-81
2023/12/09 17:12:28;;;;;;;4.15;1.25;;;;;;;;;;4820715;29;20046;-82
2023/12/09 17:14:54;;;;;;;3.20;1.02;;;;;;;;;;4803781;29;20061;-80
2023/12/09 17:17:20;;;;;;;3.47;1.55;;;;;;;;;;4802242;29;20424;-81
2023/12/09 17:19:46;;;;;;;2.20;1.13;;;;;;;;;;4803375;29;20057;-81
2023/12/09 17:22:12;;;;;;;3.28;1.83;;;;;;;;;;4803522;29;20034;-82
2023/12/09 17:24:38;;;;;;;3.63;1.67;;;;;;;;;;4815802;29;20068;-80
2023/12/09 17:27:04;;;;;;;8.18;3.35;;;;;;;;;;4823314;29;20419;-80
2023/12/09 17:29:30;;;;;;;8.95;3.22;;;;;;;;;;4823760;29;20086;-81
2023/12/09 17:37:34;;;;;;;5.47;2.50;;;;;;;;;;3476452;24;20065;-82
2023/12/09 17:40:10;;;;;;;1.33;0.20;;;;;;;;;;4813481;29;20512;-81
2023/12/09 17:43:09;;;;;;;1.63;0.35;;;;;;;;;;4833714;24;20054;-79
2023/12/09 18:33:59;;;;;;;1.25;0.40;;;;;;;;;;4145398;27;20874;-82
2023/12/09 18:39:50;;;;;;;0.47;0.28;;;;;;;;;;4741829;30;20396;-82
2023/12/09 18:42:17;;;;;;;2.20;0.77;;;;;;;;;;4722292;30;20053;-82
2023/12/09 18:44:43;;;;;;;0.40;0.30;;;;;;;;;;4778220;29;20047;-81
2023/12/09 18:47:09;;;;;;;1.00;0.60;;;;;;;;;;4798087;29;20497;-81
2023/12/09 18:49:41;;;;;;;1.15;1.05;;;;;;;;;;4769258;30;20424;-81
2023/12/09 18:52:51;;;;;;;5.57;2.53;;;;;;;;;;4773547;30;20050;-82
2023/12/09 18:55:24;;;;;;;0.25;0.25;;;;;;;;;;4776673;29;20054;-81
2023/12/09 18:58:15;;;;;;;0.10;0.00;;;;;;;;;;4773424;29;20122;-81
2023/12/09 19:00:55;;;;;;;0.73;0.30;;;;;;;;;;4780419;29;20063;-81
2023/12/09 19:03:21;;;;;;;1.38;0.68;;;;;;;;;;4785700;29;20043;-81
2023/12/09 19:05:48;;;;;;;0.52;0.22;;;;;;;;;;4785772;30;20047;-80
2023/12/09 19:08:14;;;;;;;1.38;0.40;;;;;;;;;;4792155;29;20035;-80
2023/12/09 19:10:40;;;;;;;5.40;0.95;;;;;;;;;;4781778;29;20048;-80
2023/12/09 19:13:06;;;;;;;2.35;0.32;;;;;;;;;;4775789;29;20104;-81
2023/12/09 19:15:32;;;;;;;0.95;0.30;;;;;;;;;;4784772;29;20051;-80
2023/12/09 19:17:58;;;;;;;1.65;0.43;;;;;;;;;;4777240;29;20134;-80
2023/12/09 19:20:24;;;;;;;0.22;0.15;;;;;;;;;;4763393;29;20048;-81
2023/12/09 19:22:51;;;;;;;0.30;0.10;;;;;;;;;;4784766;30;20050;-81
2023/12/09 19:25:17;;;;;;;0.45;0.40;;;;;;;;;;4774946;30;20051;-81
2023/12/09 19:27:44;;;;;;;1.00;0.43;;;;;;;;;;4779856;30;20045;-81
2023/12/09 19:30:10;;;;;;;4.38;0.73;;;;;;;;;;4787515;29;20070;-80
2023/12/09 19:32:36;;;;;;;2.03;0.98;;;;;;;;;;4772840;29;20064;-81
2023/12/09 19:35:03;;;;;;;2.20;1.10;;;;;;;;;;4762319;30;20458;-81
2023/12/09 19:37:29;;;;;;;3.67;1.60;;;;;;;;;;4761161;30;20502;-81
2023/12/09 19:39:55;;;;;;;1.80;0.95;;;;;;;;;;4756111;30;20063;-82
2023/12/09 19:42:22;;;;;;;2.63;0.65;;;;;;;;;;4772390;30;20453;-81
2023/12/09 19:44:48;;;;;;;2.22;0.98;;;;;;;;;;4756570;30;20490;-81
2023/12/09 19:47:14;;;;;;;0.10;0.10;;;;;;;;;;4764183;29;20050;-81
2023/12/09 19:49:40;;;;;;;2.30;0.68;;;;;;;;;;4752152;30;20112;-81
2023/12/09 19:52:06;;;;;;;1.75;0.73;;;;;;;;;;4766981;30;20075;-81
2023/12/09 19:54:32;;;;;;;2.55;1.27;;;;;;;;;;4762794;30;20071;-80
2023/12/09 19:56:58;;;;;;;1.10;0.40;;;;;;;;;;4763661;30;20052;-83
2023/12/09 19:59:24;;;;;;;6.07;0.52;;;;;;;;;;4766079;30;20123;-83
2023/12/09 20:01:50;;;;;;;0.93;0.50;;;;;;;;;;4749813;30;20043;-82
2023/12/09 21:53:14;;;;;;;;;;;;;;;;;;;;;
2023/12/09 22:18:09;;;;;;;3.55;1.38;;;;;;;;;;4815278;29;20684;-83
2023/12/09 22:27:30;;;;;;;2.00;1.35;;;;;;;;;;4763525;30;20047;-83
2023/12/09 23:37:24;;;;;;;4.22;0.43;;;;;;;;;;3419906;24;20344;-84
